Terminal Aerodrome Forecast
Issued by NWS Billings, MT

Home | Current Version | Previous Version | Text Only | Print | Product List | Glossary On
Versions: 1 2 3 4 5 6 7 8 9 10 11 12 13 14 15 16 17 18 19 20 21 22 23 24 25 26 27 28 29 30 31 32 33 34 35
274
FTUS45 KBYZ 132326
TAFMLS
TAF
KMLS 132326Z 1400/1424 29012G21KT P6SM SCT015 BKN050
     FM140300 30025G40KT P6SM VCSH OVC050
     FM140600 27012G24KT P6SM VCSH OVC050
     FM141800 29017G30KT P6SM VCSH SCT030 OVC050=

USA.gov is the U.S. government's official web portal to all federal, state and local government web resources and services.